createdAt,value
2018-10-16T00:03:19.147Z,68.00
2018-10-16T00:08:23.065Z,68.80
2018-10-16T00:13:26.913Z,68.30
2018-10-16T00:18:30.752Z,68.70
2018-10-16T00:23:34.727Z,69.10
2018-10-16T00:28:38.377Z,69.80
2018-10-16T00:33:42.043Z,69.80
2018-10-16T00:38:45.699Z,69.90
2018-10-16T00:43:49.488Z,70.40
2018-10-16T00:48:53.157Z,70.80
2018-10-16T00:53:56.810Z,71.00
2018-10-16T00:59:00.469Z,71.60
2018-10-16T01:04:05.258Z,72.70
2018-10-16T01:09:10.127Z,72.60
2018-10-16T01:14:13.786Z,73.60
2018-10-16T01:19:17.859Z,74.30
2018-10-16T01:24:21.504Z,75.40
2018-10-16T01:29:25.319Z,75.30
2018-10-16T01:34:29.007Z,75.90
2018-10-16T01:39:32.785Z,76.40
2018-10-16T01:44:36.587Z,77.00
2018-10-16T01:49:40.243Z,77.90
2018-10-16T01:54:43.907Z,78.40
2018-10-16T01:59:47.550Z,79.20
2018-10-16T02:04:51.550Z,80.40
2018-10-16T02:09:55.199Z,79.50
2018-10-16T02:14:58.831Z,80.90
2018-10-16T02:20:02.931Z,81.10
2018-10-16T02:25:07.042Z,81.10
2018-10-16T02:30:10.848Z,82.00
2018-10-16T02:35:14.520Z,82.50
2018-10-16T02:40:18.171Z,82.90
2018-10-16T02:45:21.800Z,83.40
2018-10-16T02:50:25.468Z,84.00
2018-10-16T02:55:29.214Z,83.60
2018-10-16T03:00:32.881Z,84.80
2018-10-16T03:05:36.577Z,85.30
2018-10-16T03:10:40.195Z,85.90
2018-10-16T03:15:43.991Z,86.20
2018-10-16T03:20:47.647Z,86.30
2018-10-16T03:25:51.367Z,86.80
2018-10-16T03:30:55.031Z,86.90
2018-10-16T03:35:58.783Z,87.80
2018-10-16T03:41:02.440Z,88.30
2018-10-16T03:46:06.164Z,88.80
2018-10-16T03:51:10.367Z,89.90
2018-10-16T03:56:14.009Z,90.00
2018-10-16T04:01:17.768Z,90.00
2018-10-16T04:06:21.963Z,90.50
2018-10-16T04:11:25.724Z,90.50
2018-10-16T04:16:29.471Z,90.70
2018-10-16T04:21:40.374Z,91.20
2018-10-16T04:26:44.169Z,91.40
2018-10-16T04:31:47.863Z,91.40
2018-10-16T04:36:51.615Z,91.80
2018-10-16T04:41:55.262Z,91.90
2018-10-16T04:46:58.904Z,91.90
2018-10-16T04:52:02.544Z,92.00
2018-10-16T04:57:06.152Z,92.30
2018-10-16T05:02:09.815Z,92.30
2018-10-16T05:07:13.449Z,92.30
2018-10-16T05:12:17.110Z,92.50
2018-10-16T05:17:20.735Z,92.60
2018-10-16T05:22:24.400Z,92.60
2018-10-16T05:27:28.052Z,92.80
2018-10-16T05:32:31.711Z,93.10
2018-10-16T05:37:35.355Z,93.30
2018-10-16T05:42:39.553Z,93.30
2018-10-16T05:47:44.370Z,93.60
2018-10-16T05:52:48.956Z,93.80
2018-10-16T05:57:52.587Z,93.90
2018-10-16T06:02:56.235Z,94.00
2018-10-16T06:07:59.868Z,93.80
2018-10-16T06:13:03.606Z,93.80
2018-10-16T06:18:07.243Z,93.90
2018-10-16T06:23:10.906Z,93.70
2018-10-16T06:28:20.462Z,94.30
2018-10-16T06:33:25.550Z,93.90
2018-10-16T06:38:29.163Z,93.80
2018-10-16T06:43:32.799Z,93.90
2018-10-16T06:48:36.627Z,93.90
2018-10-16T06:53:40.082Z,93.70
2018-10-16T06:58:43.714Z,93.70
2018-10-16T07:03:47.351Z,93.30
2018-10-16T07:08:50.975Z,93.10
2018-10-16T07:13:54.635Z,92.60
2018-10-16T07:18:58.321Z,92.60
2018-10-16T07:24:02.046Z,92.30
2018-10-16T07:29:06.459Z,92.10
2018-10-16T07:34:10.157Z,91.50
2018-10-16T07:39:14.223Z,91.70
2018-10-16T07:44:17.886Z,91.20
2018-10-16T07:49:21.512Z,91.00
2018-10-16T07:54:25.163Z,90.60
2018-10-16T07:59:28.804Z,90.50
2018-10-16T08:04:32.844Z,90.20
2018-10-16T08:09:36.563Z,89.30
2018-10-16T08:14:40.555Z,89.50
2018-10-16T08:19:44.175Z,88.40
2018-10-16T08:24:47.949Z,86.80
2018-10-16T08:29:51.671Z,84.60
2018-10-16T08:34:55.661Z,83.20
2018-10-16T08:39:59.692Z,81.00
2018-10-16T08:45:15.942Z,79.60
2018-10-16T08:50:31.974Z,79.90
2018-10-16T08:55:36.003Z,79.60
2018-10-16T09:00:39.668Z,79.10
2018-10-16T09:05:43.316Z,79.20
2018-10-16T09:10:46.952Z,78.20
2018-10-16T09:15:50.667Z,77.90
2018-10-16T09:20:54.907Z,78.00
2018-10-16T09:25:58.607Z,76.40
2018-10-16T09:31:02.254Z,76.40
2018-10-16T09:36:06.528Z,75.70
2018-10-16T09:41:10.292Z,76.50
2018-10-16T09:46:14.077Z,74.80
2018-10-16T09:51:17.768Z,71.30
2018-10-16T09:56:21.339Z,70.70
2018-10-16T10:01:30.383Z,71.00
2018-10-16T10:06:34.080Z,68.90
2018-10-16T10:11:38.018Z,66.40
2018-10-16T10:16:41.654Z,66.60
2018-10-16T10:21:45.276Z,62.10
2018-10-16T10:26:48.978Z,57.60
2018-10-16T10:31:52.595Z,57.90
2018-10-16T10:36:56.420Z,56.10
2018-10-16T10:42:00.063Z,52.50
2018-10-16T10:47:03.698Z,50.30
2018-10-16T10:52:07.320Z,53.00
2018-10-16T10:57:11.030Z,47.40
2018-10-16T11:02:14.527Z,48.60
2018-10-16T11:07:18.148Z,47.20
2018-10-16T11:12:21.759Z,48.20
2018-10-16T11:17:25.404Z,49.90
2018-10-16T11:22:29.278Z,48.40
2018-10-16T11:27:34.148Z,45.80
2018-10-16T11:32:38.064Z,43.00
2018-10-16T11:37:41.951Z,43.20
2018-10-16T11:42:45.587Z,41.80
2018-10-16T11:47:49.203Z,40.50
2018-10-16T11:52:52.843Z,38.20
2018-10-16T11:57:56.501Z,37.80
2018-10-16T12:03:00.128Z,37.50
2018-10-16T12:08:03.863Z,38.20
2018-10-16T12:13:07.456Z,39.70
2018-10-16T12:18:16.763Z,40.40
2018-10-16T12:23:20.423Z,40.20
2018-10-16T12:28:24.049Z,43.40
2018-10-16T12:33:27.708Z,42.80
2018-10-16T12:38:31.527Z,42.90
2018-10-16T12:43:35.420Z,44.40
2018-10-16T12:48:38.967Z,45.10
2018-10-16T12:53:42.597Z,45.80
2018-10-16T12:58:46.223Z,45.90
2018-10-16T13:03:49.917Z,47.40
2018-10-16T13:08:53.578Z,48.30
2018-10-16T13:13:57.288Z,47.90
2018-10-16T13:19:00.936Z,47.70
2018-10-16T13:24:04.628Z,47.50
2018-10-16T13:29:08.322Z,48.10
2018-10-16T13:34:12.025Z,49.00
2018-10-16T13:39:15.542Z,49.50
2018-10-16T13:44:19.172Z,48.30
2018-10-16T13:49:22.790Z,48.80
2018-10-16T13:54:26.400Z,48.50
2018-10-16T13:59:30.047Z,48.20
2018-10-16T14:04:33.776Z,49.10
2018-10-16T14:09:37.387Z,50.10
2018-10-16T14:14:41.150Z,49.80
2018-10-16T14:19:45.131Z,49.90
2018-10-16T14:24:48.828Z,50.50
2018-10-16T14:29:52.458Z,51.30
2018-10-16T14:34:56.091Z,51.00
2018-10-16T14:39:59.810Z,51.00
2018-10-16T14:45:03.416Z,49.70
2018-10-16T14:50:07.993Z,50.60
2018-10-16T14:55:11.819Z,50.80
2018-10-16T15:00:15.488Z,51.70
2018-10-16T15:05:19.346Z,51.80
2018-10-16T15:10:23.031Z,52.00
2018-10-16T15:15:26.631Z,51.30
2018-10-16T15:20:30.255Z,50.90
2018-10-16T15:25:33.959Z,51.90
2018-10-16T15:30:37.823Z,53.10
2018-10-16T15:35:41.571Z,55.10
2018-10-16T15:40:45.230Z,55.30
2018-10-16T15:45:48.865Z,56.50
2018-10-16T15:50:52.556Z,57.00
2018-10-16T15:55:56.344Z,57.90
2018-10-16T16:01:00.324Z,58.40
2018-10-16T16:06:04.701Z,59.10
2018-10-16T16:11:08.284Z,59.60
2018-10-16T16:16:11.998Z,60.30
2018-10-16T16:21:15.580Z,61.10
2018-10-16T16:26:19.226Z,61.60
2018-10-16T16:31:22.855Z,62.10
2018-10-16T16:36:26.555Z,62.60
2018-10-16T16:41:30.204Z,63.40
2018-10-16T16:46:33.832Z,63.90
2018-10-16T16:51:37.582Z,64.60
2018-10-16T16:56:41.239Z,65.50
2018-10-16T17:01:44.877Z,66.20
2018-10-16T17:06:48.544Z,66.40
2018-10-16T17:11:52.198Z,67.70
2018-10-16T17:16:55.878Z,67.60
2018-10-16T17:21:59.571Z,68.50
2018-10-16T17:27:03.160Z,69.40
2018-10-16T17:32:07.295Z,70.00
2018-10-16T17:37:10.930Z,71.40
2018-10-16T17:42:14.641Z,71.90
2018-10-16T17:47:18.270Z,72.80
2018-10-16T17:52:21.916Z,73.80
2018-10-16T17:57:25.579Z,74.30
2018-10-16T18:02:29.201Z,75.30
2018-10-16T18:07:32.828Z,76.30
2018-10-16T18:12:36.491Z,77.20
2018-10-16T18:17:40.937Z,78.10
2018-10-16T18:22:45.048Z,79.80
2018-10-16T18:27:48.692Z,80.20
2018-10-16T18:32:52.344Z,81.60
2018-10-16T18:37:55.959Z,82.50
2018-10-16T18:42:59.578Z,84.40
2018-10-16T18:48:03.199Z,85.50
2018-10-16T18:53:06.898Z,86.10
2018-10-16T18:58:10.530Z,87.40
2018-10-16T19:03:14.926Z,88.70
2018-10-16T19:08:19.234Z,89.50
2018-10-16T19:13:23.572Z,90.00
2018-10-16T19:18:27.902Z,90.20
2018-10-16T19:23:32.327Z,90.70
2018-10-16T19:28:35.995Z,90.90
2018-10-16T19:33:39.687Z,91.00
2018-10-16T19:38:43.348Z,91.00
2018-10-16T19:43:46.995Z,91.30
2018-10-16T19:48:50.651Z,91.70
2018-10-16T19:53:54.303Z,91.80
2018-10-16T19:58:57.923Z,92.20
2018-10-16T20:04:01.805Z,92.50
2018-10-16T20:09:08.259Z,92.70
2018-10-16T20:14:12.051Z,93.00
2018-10-16T20:19:15.825Z,93.20
2018-10-16T20:24:20.007Z,93.10
2018-10-16T20:29:23.978Z,93.10
2018-10-16T20:34:27.736Z,93.50
2018-10-16T20:39:31.516Z,93.70
2018-10-16T20:44:35.314Z,93.80
2018-10-16T20:49:39.060Z,93.90
2018-10-16T20:54:42.675Z,94.00
2018-10-16T20:59:47.425Z,94.20
2018-10-16T21:04:51.106Z,94.20
2018-10-16T21:09:54.784Z,94.40
2018-10-16T21:14:58.404Z,94.70
2018-10-16T21:20:02.126Z,95.10
2018-10-16T21:25:06.421Z,94.90
2018-10-16T21:30:10.119Z,95.20
2018-10-16T21:35:13.852Z,95.50
2018-10-16T21:40:17.899Z,95.50
2018-10-16T21:45:21.571Z,95.50
2018-10-16T21:50:25.298Z,95.60
2018-10-16T21:55:29.051Z,95.80
2018-10-16T22:00:39.475Z,95.90
2018-10-16T22:05:43.135Z,96.20
2018-10-16T22:10:46.777Z,96.30
2018-10-16T22:15:50.463Z,96.40
2018-10-16T22:20:54.104Z,96.80
2018-10-16T22:25:57.838Z,96.70
2018-10-16T22:31:01.553Z,96.90
2018-10-16T22:36:05.158Z,97.00
2018-10-16T22:41:08.834Z,97.10
2018-10-16T22:46:12.427Z,97.40
2018-10-16T22:51:16.060Z,97.30
2018-10-16T22:56:19.710Z,97.30
2018-10-16T23:01:23.359Z,97.30
2018-10-16T23:06:27.019Z,97.60
2018-10-16T23:11:30.635Z,97.70
2018-10-16T23:16:34.263Z,97.90
2018-10-16T23:21:37.998Z,98.00
2018-10-16T23:26:41.621Z,98.00
2018-10-16T23:31:45.226Z,98.30
2018-10-16T23:36:48.857Z,98.10
2018-10-16T23:41:52.494Z,98.30
2018-10-16T23:46:56.182Z,98.70
2018-10-16T23:51:59.764Z,98.50
2018-10-16T23:57:03.394Z,98.50
